This is the latest recevied weather packets stored in our database for station/object LRCK. If no packets are shown the sender has not sent any weather packets the latest 1 day(s).
| Time | Temp. | Humidity | Pressure | Rain* | Wind** | Luminosity | Snow |
|---|---|---|---|---|---|---|---|
| 1777975397 | 17.78° C | 40% | 1016 hPa | - | 4.92 m/s, 110° | - | - |
| 1777974498 | 18.89° C | 37% | 1016 hPa | - | 3.13 m/s, 60° | - | - |
| 1777973597 | 18.89° C | 37% | 1016 hPa | - | 3.13 m/s, 60° | - | - |
| 1777972697 | 18.89° C | 43% | 1016 hPa | - | 1.34 m/s, 50° | - | - |
| 1777971797 | 18.89° C | 43% | 1016 hPa | - | 1.34 m/s, 50° | - | - |
| 1777970897 | 17.78° C | 40% | 1016 hPa | - | 2.24 m/s, 70° | - | - |
| 1777969998 | 17.78° C | 40% | 1016 hPa | - | 2.24 m/s, 70° | - | - |
| 1777969098 | 17.78° C | 46% | 1016 hPa | - | 2.24 m/s, 50° | - | - |
| 1777968197 | 17.78° C | 46% | 1016 hPa | - | 2.24 m/s, 50° | - | - |
| 1777967313 | 17.22° C | 45% | 1016 hPa | - | 2.24 m/s, 50° | - | - |
| 1777966397 | 17.22° C | 45% | 1016 hPa | - | 2.24 m/s, 50° | - | - |
| 1777965497 | 17.22° C | 45% | 1016 hPa | - | 2.24 m/s, 50° | - | - |
| 1777964597 | 17.22° C | 45% | 1016 hPa | - | 2.24 m/s, 50° | - | - |
| 1777963697 | 17.22° C | 42% | 1016 hPa | - | 2.24 m/s, 40° | - | - |
| 1777962798 | 17.22° C | 42% | 1016 hPa | - | 2.24 m/s, 40° | - | - |
| 1777961897 | 16.11° C | 42% | 1016 hPa | - | 2.68 m/s, 30° | - | - |
| 1777960997 | 16.11° C | 42% | 1016 hPa | - | 2.68 m/s, 30° | - | - |
| 1777960097 | 13.89° C | 59% | 1016 hPa | - | 1.34 m/s, 330° | - | - |
| 1777959197 | 13.89° C | 59% | 1016 hPa | - | 1.34 m/s, 330° | - | - |
| 1777958297 | 12.22° C | 58% | 1016 hPa | - | 2.24 m/s, 320° | - | - |
| 1777957397 | 12.22° C | 58% | 1016 hPa | - | 2.24 m/s, 320° | - | - |
| 1777956497 | 8.89° C | 66% | 1015 hPa | - | 3.13 m/s, 310° | - | - |
| 1777955597 | 8.89° C | 66% | 1015 hPa | - | 3.13 m/s, 310° | - | - |
| 1777954697 | 6.11° C | 81% | 1015 hPa | - | 3.13 m/s, 320° | - | - |
| 1777953796 | 6.11° C | 81% | 1015 hPa | - | 3.13 m/s, 320° | - | - |
* Rain since midnight (hover to see other rain measurements)
** Current wind speed in m/s (hover to see current wind gust speed)